createdAt,value
2023-04-19T00:04:10.115Z,22.45
2023-04-19T00:09:12.114Z,21.42
2023-04-19T00:14:14.116Z,20.00
2023-04-19T00:19:16.320Z,23.30
2023-04-19T00:24:18.451Z,23.65
2023-04-19T00:29:20.199Z,20.45
2023-04-19T00:34:22.037Z,16.42
2023-04-19T00:39:24.149Z,20.55
2023-04-19T00:44:25.926Z,17.25
2023-04-19T00:49:30.024Z,16.08
2023-04-19T00:54:33.527Z,14.85
2023-04-19T00:59:35.416Z,17.13
2023-04-19T01:04:39.028Z,13.07
2023-04-19T01:09:43.395Z,17.25
2023-04-19T01:14:45.231Z,16.88
2023-04-19T01:19:47.387Z,21.42
2023-04-19T01:24:49.173Z,13.70
2023-04-19T01:29:51.048Z,16.70
2023-04-19T01:34:53.219Z,15.48
2023-04-19T01:39:55.024Z,18.30
2023-04-19T01:44:56.817Z,19.25
2023-04-19T01:49:58.591Z,15.60
2023-04-19T01:55:00.437Z,19.27
2023-04-19T02:00:02.596Z,19.98
2023-04-19T02:05:08.519Z,16.38
2023-04-19T02:10:14.352Z,15.02
2023-04-19T02:15:16.144Z,17.50
2023-04-19T02:20:17.987Z,17.95
2023-04-19T02:25:20.091Z,17.48
2023-04-19T02:30:21.952Z,18.08
2023-04-19T02:35:25.465Z,19.85
2023-04-19T02:40:27.292Z,19.80
2023-04-19T02:45:29.119Z,22.98
2023-04-19T02:50:31.154Z,16.67
2023-04-19T02:55:33.417Z,17.92
2023-04-19T03:00:50.138Z,21.60
2023-04-19T03:05:55.687Z,19.67
2023-04-19T03:10:58.496Z,20.67
2023-04-19T03:16:00.698Z,20.55
2023-04-19T03:21:05.532Z,17.92
2023-04-19T03:26:16.132Z,19.52
2023-04-19T03:31:21.849Z,23.52
2023-04-19T03:36:27.018Z,19.02
2023-04-19T03:41:29.058Z,20.67
2023-04-19T03:46:51.266Z,25.55
2023-04-19T03:51:57.855Z,23.95
2023-04-19T03:57:01.194Z,20.20
2023-04-19T04:02:04.220Z,19.90
2023-04-19T04:07:06.140Z,24.38
2023-04-19T04:12:08.597Z,22.63
2023-04-19T04:17:11.310Z,30.65
2023-04-19T04:22:13.243Z,29.65
2023-04-19T04:27:21.347Z,23.50
2023-04-19T04:32:24.992Z,32.92
2023-04-19T04:37:36.279Z,27.55
2023-04-19T04:42:39.178Z,25.17
2023-04-19T04:47:41.765Z,21.02
2023-04-19T04:52:45.797Z,22.73
2023-04-19T04:57:54.468Z,16.85
2023-04-19T05:03:04.201Z,22.73
2023-04-19T05:08:10.717Z,14.05
2023-04-19T05:13:13.904Z,15.25
2023-04-19T05:18:16.085Z,15.73
2023-04-19T05:23:18.800Z,20.15
2023-04-19T05:28:20.792Z,18.00
2023-04-19T05:33:35.103Z,13.48
2023-04-19T05:38:37.034Z,12.25
2023-04-19T05:43:40.050Z,10.05
2023-04-19T05:48:43.225Z,13.40
2023-04-19T05:54:03.561Z,11.00
2023-04-19T05:59:06.720Z,14.35
2023-04-19T06:04:08.599Z,6.72
2023-04-19T06:09:12.405Z,9.93
2023-04-19T06:14:15.910Z,8.80
2023-04-19T06:19:19.092Z,8.07
2023-04-19T06:24:20.973Z,9.88
2023-04-19T06:29:24.242Z,10.20
2023-04-19T06:34:26.006Z,8.70
2023-04-19T06:39:28.459Z,5.55
2023-04-19T06:44:30.283Z,6.72
2023-04-19T06:49:32.107Z,7.13
2023-04-19T06:54:33.917Z,5.65
2023-04-19T06:59:39.933Z,5.22
2023-04-19T07:04:42.128Z,4.95
2023-04-19T07:09:44.140Z,9.95
2023-04-19T07:14:45.947Z,13.90
2023-04-19T07:19:49.045Z,5.55
2023-04-19T07:24:52.225Z,3.38
2023-04-19T07:29:54.047Z,6.90
2023-04-19T07:34:56.055Z,5.40
2023-04-19T07:39:57.913Z,5.57
2023-04-19T07:45:00.270Z,6.45
2023-04-19T07:50:02.131Z,5.13
2023-04-19T07:55:04.279Z,6.20
2023-04-19T08:00:06.950Z,6.68
2023-04-19T08:05:17.695Z,7.25
2023-04-19T08:10:22.224Z,6.80
2023-04-19T08:16:04.919Z,6.40
2023-04-19T08:20:49.323Z,3.75
2023-04-19T08:25:51.353Z,5.72
2023-04-19T08:30:54.484Z,5.72
2023-04-19T08:35:56.278Z,6.57
2023-04-19T08:40:58.185Z,11.35
2023-04-19T08:46:00.371Z,5.82
2023-04-19T08:51:05.583Z,9.07
2023-04-19T08:56:18.095Z,13.23
2023-04-19T09:06:41.616Z,7.30
2023-04-19T09:11:43.790Z,7.20
2023-04-19T09:16:46.301Z,7.72
2023-04-19T09:21:51.874Z,9.70
2023-04-19T09:26:55.044Z,7.53
2023-04-19T09:31:59.560Z,8.05
2023-04-19T09:37:24.963Z,9.57
2023-04-19T09:48:11.543Z,5.00
2023-04-19T09:53:14.247Z,19.90
2023-04-19T09:58:17.057Z,6.68
2023-04-19T10:03:20.541Z,5.68
2023-04-19T10:08:22.376Z,11.00
2023-04-19T10:13:26.835Z,6.75
2023-04-19T10:18:29.803Z,8.05
2023-04-19T10:23:33.384Z,4.60
2023-04-19T10:28:36.828Z,7.78
2023-04-19T10:33:38.839Z,5.15
2023-04-19T10:38:48.983Z,6.85
2023-04-19T10:43:57.838Z,9.38
2023-04-19T10:49:01.211Z,7.05
2023-04-19T10:54:07.371Z,9.38
2023-04-19T10:59:13.292Z,8.50
2023-04-19T11:04:30.182Z,9.45
2023-04-19T11:09:38.305Z,8.27
2023-04-19T11:14:42.907Z,10.25
2023-04-19T11:20:03.393Z,6.43
2023-04-19T11:25:17.361Z,6.50
2023-04-19T11:30:22.580Z,8.68
2023-04-19T11:35:26.945Z,6.03
2023-04-19T11:40:28.888Z,5.38
2023-04-19T11:45:39.495Z,5.47
2023-04-19T11:50:43.690Z,6.47
2023-04-19T11:55:53.345Z,6.10
2023-04-19T12:00:56.586Z,7.57
2023-04-19T12:06:00.785Z,9.10
2023-04-19T12:11:03.757Z,3.83
2023-04-19T12:16:05.710Z,7.30
2023-04-19T12:21:08.053Z,5.45
2023-04-19T12:26:09.869Z,3.70
2023-04-19T12:31:11.728Z,7.40
2023-04-19T12:36:13.559Z,6.32
2023-04-19T12:41:15.376Z,8.95
2023-04-19T12:46:17.186Z,9.18
2023-04-19T12:51:19.020Z,9.35
2023-04-19T12:56:21.381Z,5.18
2023-04-19T13:01:23.676Z,7.05
2023-04-19T13:06:26.370Z,7.00
2023-04-19T13:11:28.311Z,6.88
2023-04-19T13:16:30.124Z,4.20
2023-04-19T13:21:32.018Z,13.65
2023-04-19T13:26:36.875Z,4.32
2023-04-19T13:31:38.907Z,7.68
2023-04-19T13:36:41.274Z,6.30
2023-04-19T13:41:43.340Z,8.95
2023-04-19T13:46:45.328Z,9.27
2023-04-19T13:51:50.732Z,10.00
2023-04-19T13:56:52.964Z,4.75
2023-04-19T14:01:56.133Z,8.48
2023-04-19T14:06:58.054Z,5.53
2023-04-19T14:12:00.379Z,23.83
2023-04-19T14:17:02.314Z,6.60
2023-04-19T14:22:04.107Z,6.80
2023-04-19T14:27:10.316Z,7.65
2023-04-19T14:32:24.992Z,10.25
2023-04-19T14:37:28.708Z,9.00
2023-04-19T14:42:30.994Z,6.85
2023-04-19T14:47:32.784Z,6.32
2023-04-19T14:52:34.924Z,9.88
2023-04-19T14:57:36.727Z,9.32
2023-04-19T15:02:38.714Z,11.40
2023-04-19T15:07:40.660Z,6.40
2023-04-19T15:12:42.535Z,7.05
2023-04-19T15:17:44.472Z,7.47
2023-04-19T15:22:46.277Z,6.68
2023-04-19T15:27:48.050Z,6.03
2023-04-19T15:32:49.913Z,10.85
2023-04-19T15:37:51.695Z,5.55
2023-04-19T15:42:53.463Z,9.60
2023-04-19T15:47:55.342Z,7.25
2023-04-19T15:52:57.556Z,11.55
2023-04-19T15:58:00.071Z,6.85
2023-04-19T16:03:02.043Z,6.43
2023-04-19T16:08:09.198Z,7.90
2023-04-19T16:13:13.449Z,10.68
2023-04-19T16:18:15.464Z,11.15
2023-04-19T16:23:17.346Z,9.93
2023-04-19T16:28:19.928Z,11.68
2023-04-19T16:33:21.883Z,9.95
2023-04-19T16:38:23.736Z,8.15
2023-04-19T16:43:25.522Z,10.23
2023-04-19T16:48:27.396Z,8.75
2023-04-19T16:53:31.375Z,8.25
2023-04-19T16:58:33.155Z,10.65
2023-04-19T17:03:35.454Z,8.90
2023-04-19T17:08:38.571Z,12.05
2023-04-19T17:13:40.461Z,7.13
2023-04-19T17:18:42.219Z,7.10
2023-04-19T17:23:45.625Z,8.35
2023-04-19T17:28:47.417Z,7.80
2023-04-19T17:33:49.318Z,9.13
2023-04-19T17:38:51.131Z,9.77
2023-04-19T17:43:52.993Z,12.77
2023-04-19T17:48:55.607Z,13.57
2023-04-19T17:53:57.397Z,10.65
2023-04-19T17:59:00.834Z,12.52
2023-04-19T18:04:03.420Z,10.95
2023-04-19T18:09:05.450Z,10.07
2023-04-19T18:14:07.509Z,9.55
2023-04-19T18:19:09.568Z,13.00
2023-04-19T18:24:11.444Z,13.35
2023-04-19T18:29:16.001Z,11.18
2023-04-19T18:34:18.203Z,9.13
2023-04-19T18:39:19.984Z,12.10
2023-04-19T18:44:44.191Z,9.02
2023-04-19T18:49:49.325Z,11.35
2023-04-19T18:54:59.801Z,12.70
2023-04-19T19:00:02.609Z,13.68
2023-04-19T19:05:07.442Z,11.43
2023-04-19T19:15:16.149Z,15.95
2023-04-19T19:20:20.055Z,13.50
2023-04-19T19:25:23.209Z,17.13
2023-04-19T19:30:26.104Z,9.07
2023-04-19T19:35:28.767Z,9.23
2023-04-19T19:40:32.728Z,6.80
2023-04-19T19:45:36.898Z,8.02
2023-04-19T19:51:07.282Z,8.23
2023-04-19T19:56:01.816Z,5.45
2023-04-19T20:01:04.365Z,5.22
2023-04-19T20:11:12.220Z,5.75
2023-04-19T20:16:15.006Z,8.75
2023-04-19T20:21:19.779Z,7.68
2023-04-19T20:26:22.057Z,7.95
2023-04-19T20:31:24.133Z,7.40
2023-04-19T20:36:27.652Z,8.88
2023-04-19T20:41:29.520Z,7.53
2023-04-19T20:46:32.133Z,6.63
2023-04-19T20:51:34.033Z,6.38
2023-04-19T20:56:35.804Z,6.32
2023-04-19T21:01:37.714Z,3.92
2023-04-19T21:06:39.564Z,5.90
2023-04-19T21:11:41.323Z,7.57
2023-04-19T21:16:43.092Z,5.20
2023-04-19T21:21:45.113Z,5.07
2023-04-19T21:26:46.922Z,6.35
2023-04-19T21:31:48.756Z,9.40
2023-04-19T21:36:50.633Z,5.70
2023-04-19T21:41:52.479Z,5.45
2023-04-19T21:46:54.281Z,9.73
2023-04-19T21:51:56.985Z,4.97
2023-04-19T21:56:59.804Z,5.68
2023-04-19T22:02:01.672Z,9.30
2023-04-19T22:07:03.562Z,5.80
2023-04-19T22:12:06.163Z,8.82
2023-04-19T22:17:09.107Z,6.65
2023-04-19T22:22:10.936Z,7.72
2023-04-19T22:27:12.714Z,6.90
2023-04-19T22:32:14.555Z,6.30
2023-04-19T22:37:16.527Z,6.43
2023-04-19T22:42:18.354Z,6.63
2023-04-19T22:47:20.151Z,7.10
2023-04-19T22:52:21.968Z,6.93
2023-04-19T22:57:23.796Z,9.93
2023-04-19T23:02:25.727Z,10.52
2023-04-19T23:07:28.984Z,7.40
2023-04-19T23:12:31.222Z,6.22
2023-04-19T23:17:33.136Z,6.45
2023-04-19T23:22:34.970Z,6.82
2023-04-19T23:27:36.818Z,8.23
2023-04-19T23:32:38.709Z,6.40
2023-04-19T23:37:41.089Z,6.57
2023-04-19T23:42:42.875Z,8.30
2023-04-19T23:47:44.986Z,8.00
2023-04-19T23:52:46.775Z,7.10
2023-04-19T23:57:49.317Z,5.82
